Fayetteville, NC (28306)

5:39 AM EST on December 10, 2016 (GMT -0500)
Wallace Pond | | Change Station

Elev 187 ft 35.02 °N, 78.94 °W | Updated 4 minutes ago

Clear
Clear
27.5 °F
Feels Like 28 °F
N
0.7
Wind Variable Wind from NW
Gusts 3.1 mph

Today
High -- | Low -- °F
--% Chance of Precip.
Yesterday
High -- | Low -- °F
Precip. -- in
Pressure 30.51 in
Visibility 10.0 miles
Clouds Clear
Windchill 28 °F
Dew Point 12 °F
Humidity 52%
Rainfall 0.00 in
Snow Depth Not available.
7:13 AM 5:04 PM
Waxing Gibbous, 82% visible
METAR KFAY 100953Z AUTO 35005KT 10SM CLR M03/M09 A3051 RMK AO2 SLP329 T10281089
Pressure 30.51 in
Visibility 10.0 miles
Clouds Clear
Windchill 28 °F
Dew Point 12 °F
Humidity 52%
Rainfall 0.00 in
Snow Depth Not available.
7:13 AM 5:04 PM
Waxing Gibbous, 82% visible
METAR KFAY 100953Z AUTO 35005KT 10SM CLR M03/M09 A3051 RMK AO2 SLP329 T10281089

10-Day Weather Forecast

Almanac

Astronomy

Dec. 10, 2016 Rise Set
Actual Time
Civil Twilight
Nautical Twilight
Astronomical Twilight
Moon
Length of Visible Light
Length of Day
Tomorrow will be .
, % of the Moon is Illuminated

Today's Extremes

State Highs State Lows

Community

WunderPhotos

Upload Photos

1,956,536 photos uploaded!

WunderBlog® & News

Nearby

Air Quality

  Air Quality AQ Index Pollutant
Not available.

Snow Depth

Station Depth Elevation

Earthquake Activity

City Distance Mag. Time & Date
Minimum magnitude displayed is 2.5.

Coastal Water Temperatures

Place Temperature

Stations

Nearby Weather Stations

Station Location Temp. Windchill Dew Point Humidity Wind Precip. Elev Updated Type
                   

Watches & Warnings

There are currently no watches in effect.